createdAt,value
2024-05-09T00:01:32.358Z,98294.25
2024-05-09T00:04:01.918Z,98293.84
2024-05-09T00:06:31.403Z,98288.13
2024-05-09T00:09:00.762Z,98287.66
2024-05-09T00:11:30.185Z,98287.91
2024-05-09T00:13:59.608Z,98286.44
2024-05-09T00:16:31.618Z,98296.50
2024-05-09T00:19:01.066Z,98295.22
2024-05-09T00:21:30.660Z,98292.66
2024-05-09T00:24:00.071Z,98294.00
2024-05-09T00:26:29.578Z,98291.16
2024-05-09T00:28:59.109Z,98299.59
2024-05-09T00:31:31.066Z,98292.53
2024-05-09T00:34:00.752Z,98291.56
2024-05-09T00:36:30.245Z,98280.47
2024-05-09T00:38:59.577Z,98285.78
2024-05-09T00:41:29.062Z,98279.28
2024-05-09T00:43:58.521Z,98280.66
2024-05-09T00:46:31.198Z,98280.66
2024-05-09T00:49:00.760Z,98282.38
2024-05-09T00:51:30.450Z,98269.88
2024-05-09T00:54:00.073Z,98275.50
2024-05-09T00:56:29.556Z,98270.28
2024-05-09T00:58:59.125Z,98265.94
2024-05-09T01:01:31.637Z,98269.88
2024-05-09T01:04:02.070Z,98270.53
2024-05-09T01:06:31.495Z,98269.97
2024-05-09T01:09:00.851Z,98266.28
2024-05-09T01:11:36.186Z,98261.72
2024-05-09T01:14:05.736Z,98268.50
2024-05-09T01:16:37.991Z,98272.84
2024-05-09T01:19:08.240Z,98271.34
2024-05-09T01:21:37.674Z,98269.69
2024-05-09T01:24:09.805Z,98273.06
2024-05-09T01:26:39.156Z,98269.63
2024-05-09T01:29:08.570Z,98268.06
2024-05-09T01:31:38.028Z,98269.59
2024-05-09T01:34:07.494Z,98265.88
2024-05-09T01:36:36.872Z,98262.06
2024-05-09T01:39:08.945Z,98266.53
2024-05-09T01:41:38.328Z,98263.44
2024-05-09T01:44:08.066Z,98257.09
2024-05-09T01:46:37.483Z,98265.97
2024-05-09T01:49:07.958Z,98266.19
2024-05-09T01:51:37.456Z,98266.63
2024-05-09T01:54:09.485Z,98259.50
2024-05-09T01:56:38.944Z,98269.28
2024-05-09T01:59:10.401Z,98269.44
2024-05-09T02:01:56.205Z,98264.66
2024-05-09T02:04:27.253Z,98260.94
2024-05-09T02:06:56.748Z,98266.63
2024-05-09T02:09:28.717Z,98258.31
2024-05-09T02:11:58.277Z,98276.59
2024-05-09T02:14:28.057Z,98272.53
2024-05-09T02:16:57.479Z,98275.75
2024-05-09T02:19:26.913Z,98271.00
2024-05-09T02:21:56.331Z,98279.75
2024-05-09T02:24:28.393Z,98275.94
2024-05-09T02:26:57.767Z,98274.50
2024-05-09T02:29:27.270Z,98274.13
2024-05-09T02:31:56.800Z,98273.66
2024-05-09T02:34:26.281Z,98270.16
2024-05-09T02:36:56.267Z,98274.03
2024-05-09T02:39:25.820Z,98273.41
2024-05-09T02:41:55.186Z,98282.44
2024-05-09T02:44:22.028Z,98279.31
2024-05-09T02:46:52.111Z,98284.91
2024-05-09T02:49:19.032Z,98286.66
2024-05-09T02:51:48.529Z,98282.53
2024-05-09T02:54:15.278Z,98282.78
2024-05-09T02:56:47.230Z,98280.53
2024-05-09T02:59:14.606Z,98275.94
2024-05-09T03:01:44.815Z,98272.78
2024-05-09T03:04:11.746Z,98281.38
2024-05-09T03:06:42.948Z,98278.53
2024-05-09T03:09:09.848Z,98284.47
2024-05-09T03:11:40.575Z,98282.53
2024-05-09T03:14:10.110Z,98284.84
2024-05-09T03:16:40.348Z,98282.50
2024-05-09T03:19:07.223Z,98282.13
2024-05-09T03:21:40.737Z,98283.16
2024-05-09T03:24:07.750Z,98285.84
2024-05-09T03:26:37.255Z,98283.03
2024-05-09T03:29:04.160Z,98287.16
2024-05-09T03:31:36.175Z,98285.31
2024-05-09T03:34:03.096Z,98279.44
2024-05-09T03:36:32.536Z,98287.44
2024-05-09T03:39:01.883Z,98290.63
2024-05-09T03:41:31.375Z,98282.72
2024-05-09T03:44:00.898Z,98280.66
2024-05-09T03:46:30.307Z,98286.47
2024-05-09T03:48:59.794Z,98285.53
2024-05-09T03:51:29.215Z,98277.13
2024-05-09T03:53:56.067Z,98277.13
2024-05-09T03:56:25.570Z,98286.75
2024-05-09T03:58:52.486Z,98275.38
2024-05-09T04:01:21.888Z,98277.88
2024-05-09T04:03:48.827Z,98275.84
2024-05-09T04:06:25.683Z,98279.97
2024-05-09T04:08:52.446Z,98290.53
2024-05-09T04:11:22.028Z,98292.41
2024-05-09T04:13:49.018Z,98287.97
2024-05-09T04:16:18.483Z,98286.81
2024-05-09T04:18:45.327Z,98284.91
2024-05-09T04:21:14.770Z,98296.16
2024-05-09T04:23:44.239Z,98297.25
2024-05-09T04:26:13.959Z,98299.75
2024-05-09T04:28:40.880Z,98302.88
2024-05-09T04:31:10.312Z,98302.13
2024-05-09T04:33:37.240Z,98287.44
2024-05-09T04:36:07.185Z,98294.00
2024-05-09T04:38:34.032Z,98293.53
2024-05-09T04:41:06.464Z,98294.38
2024-05-09T04:43:35.190Z,98305.69
2024-05-09T04:46:04.574Z,98295.72
2024-05-09T04:48:31.450Z,98300.44
2024-05-09T04:51:00.905Z,98300.06
2024-05-09T04:53:27.769Z,98302.94
2024-05-09T04:55:57.253Z,98303.97
2024-05-09T04:58:26.767Z,98303.41
2024-05-09T05:00:56.206Z,98308.50
2024-05-09T05:03:23.272Z,98301.41
2024-05-09T05:05:53.796Z,98290.44
2024-05-09T05:08:21.025Z,98293.94
2024-05-09T05:10:50.738Z,98299.22
2024-05-09T05:13:20.765Z,98297.44
2024-05-09T05:15:57.218Z,98305.91
2024-05-09T05:18:25.644Z,98308.56
2024-05-09T05:20:55.337Z,98305.66
2024-05-09T05:23:25.577Z,98307.19
2024-05-09T05:25:53.466Z,98311.50
2024-05-09T05:28:23.918Z,98299.00
2024-05-09T05:30:53.401Z,98313.66
2024-05-09T05:33:23.451Z,98314.41
2024-05-09T05:35:50.508Z,98319.19
2024-05-09T05:38:23.769Z,98312.44
2024-05-09T05:40:52.971Z,98318.97
2024-05-09T05:43:22.678Z,98310.84
2024-05-09T05:45:49.688Z,98313.75
2024-05-09T05:48:21.811Z,98315.44
2024-05-09T05:50:48.795Z,98320.31
2024-05-09T05:53:18.303Z,98323.41
2024-05-09T05:55:45.240Z,98325.19
2024-05-09T05:58:15.226Z,98326.44
2024-05-09T06:00:42.794Z,98322.72
2024-05-09T06:03:13.454Z,98323.47
2024-05-09T06:05:45.668Z,98328.41
2024-05-09T06:08:15.186Z,98323.09
2024-05-09T06:10:42.574Z,98319.75
2024-05-09T06:13:13.748Z,98324.22
2024-05-09T06:15:41.537Z,98326.00
2024-05-09T06:18:12.499Z,98318.78
2024-05-09T06:20:41.441Z,98324.88
2024-05-09T06:23:14.305Z,98322.34
2024-05-09T06:25:42.215Z,98329.19
2024-05-09T06:28:11.839Z,98326.19
2024-05-09T06:30:42.036Z,98323.69
2024-05-09T06:33:15.312Z,98326.59
2024-05-09T06:35:43.615Z,98329.25
2024-05-09T06:38:15.871Z,98330.03
2024-05-09T06:40:44.076Z,98326.50
2024-05-09T06:43:16.351Z,98330.06
2024-05-09T06:45:46.084Z,98334.22
2024-05-09T06:48:15.768Z,98324.03
2024-05-09T06:50:42.664Z,98326.34
2024-05-09T06:53:12.026Z,98334.28
2024-05-09T06:55:41.447Z,98336.38
2024-05-09T06:58:11.598Z,98334.34
2024-05-09T07:00:40.972Z,98335.06
2024-05-09T07:03:12.949Z,98341.47
2024-05-09T07:05:41.972Z,98348.97
2024-05-09T07:08:11.861Z,98347.72
2024-05-09T07:10:41.453Z,98341.41
2024-05-09T07:13:11.790Z,98342.63
2024-05-09T07:15:38.872Z,98338.72
2024-05-09T07:18:13.736Z,98343.44
2024-05-09T07:20:41.205Z,98344.81
2024-05-09T07:23:11.610Z,98342.19
2024-05-09T07:25:41.518Z,98339.16
2024-05-09T07:28:13.710Z,98343.09
2024-05-09T07:30:40.462Z,98333.63
2024-05-09T07:33:10.019Z,98334.06
2024-05-09T07:35:36.965Z,98331.88
2024-05-09T07:38:06.805Z,98336.97
2024-05-09T07:40:36.543Z,98337.97
2024-05-09T07:43:11.503Z,98326.28
2024-05-09T07:45:48.549Z,98333.84
2024-05-09T07:52:37.562Z,98339.38
2024-05-09T07:53:47.252Z,98337.00
2024-05-09T07:56:18.561Z,98333.81
2024-05-09T07:58:52.473Z,98328.03
2024-05-09T08:01:19.744Z,98334.25
2024-05-09T08:03:49.511Z,98333.56
2024-05-09T08:06:16.501Z,98333.38
2024-05-09T08:08:45.917Z,98333.38
2024-05-09T08:11:12.768Z,98327.25
2024-05-09T08:13:42.115Z,98332.59
2024-05-09T08:16:11.634Z,98333.16
2024-05-09T08:18:41.287Z,98337.09
2024-05-09T08:21:08.197Z,98341.28
2024-05-09T08:23:37.608Z,98331.34
2024-05-09T08:26:04.927Z,98327.03
2024-05-09T08:28:34.354Z,98330.38
2024-05-09T08:31:04.224Z,98334.00
2024-05-09T08:33:38.317Z,98325.94
2024-05-09T08:36:05.727Z,98328.31
2024-05-09T08:38:35.087Z,98333.88
2024-05-09T08:41:03.723Z,98328.53
2024-05-09T08:43:33.348Z,98333.38
2024-05-09T08:46:00.367Z,98327.03
2024-05-09T08:48:30.203Z,98320.22
2024-05-09T08:51:01.427Z,98326.41
2024-05-09T08:53:30.832Z,98322.16
2024-05-09T08:56:00.772Z,98323.25
2024-05-09T08:58:32.149Z,98325.31
2024-05-09T09:01:00.228Z,98315.72
2024-05-09T09:03:30.752Z,98312.66
2024-05-09T09:06:02.589Z,98315.47
2024-05-09T09:08:31.952Z,98318.00
2024-05-09T09:10:59.426Z,98315.69
2024-05-09T09:13:29.151Z,98307.84
2024-05-09T09:15:58.865Z,98309.09
2024-05-09T09:18:29.331Z,98313.66
2024-05-09T09:20:56.632Z,98311.31
2024-05-09T09:23:30.449Z,98304.22
2024-05-09T09:25:58.738Z,98313.38
2024-05-09T09:28:28.221Z,98312.38
2024-05-09T09:31:01.418Z,98313.78
2024-05-09T09:33:32.077Z,98311.16
2024-05-09T09:35:59.244Z,98307.53
2024-05-09T09:38:33.625Z,98305.53
2024-05-09T09:41:01.758Z,98309.88
2024-05-09T09:43:31.510Z,98308.25
2024-05-09T09:45:59.920Z,98303.69
2024-05-09T09:48:30.269Z,98305.69
2024-05-09T09:50:57.472Z,98300.84
2024-05-09T09:53:27.216Z,98303.09
2024-05-09T09:55:56.786Z,98306.38
2024-05-09T09:58:26.565Z,98308.69
2024-05-09T10:00:53.419Z,98302.09
2024-05-09T10:03:23.074Z,98289.97
2024-05-09T10:05:50.086Z,98281.81
2024-05-09T10:08:22.050Z,98300.88
2024-05-09T10:10:49.007Z,98291.56
2024-05-09T10:13:21.346Z,98295.72
2024-05-09T10:15:51.620Z,98295.06
2024-05-09T10:18:27.222Z,98297.38
2024-05-09T10:20:56.374Z,98287.56
2024-05-09T10:23:27.206Z,98286.88
2024-05-09T10:26:04.567Z,98285.88
2024-05-09T10:28:35.312Z,98287.28
2024-05-09T10:31:06.160Z,98282.31
2024-05-09T10:33:37.621Z,98276.53
2024-05-09T10:36:07.744Z,98277.78
2024-05-09T10:38:34.624Z,98280.50
2024-05-09T10:41:05.676Z,98275.47
2024-05-09T10:43:37.082Z,98278.72
2024-05-09T10:46:07.291Z,98274.81
2024-05-09T10:48:34.706Z,98268.97
2024-05-09T10:51:04.200Z,98272.66
2024-05-09T10:53:31.175Z,98265.84
2024-05-09T10:56:01.336Z,98267.25
2024-05-09T10:58:28.705Z,98264.88
2024-05-09T11:01:02.456Z,98260.22
2024-05-09T11:03:31.243Z,98259.53
2024-05-09T11:06:00.721Z,98248.16
2024-05-09T11:08:27.827Z,98259.19
2024-05-09T11:10:59.254Z,98259.94
2024-05-09T11:13:27.186Z,98258.44
2024-05-09T11:15:56.608Z,98256.97
2024-05-09T11:18:33.248Z,98259.97
2024-05-09T11:21:02.999Z,98257.28
2024-05-09T11:23:32.669Z,98255.84
2024-05-09T11:25:59.580Z,98255.28
2024-05-09T11:28:29.884Z,98248.06
2024-05-09T11:31:05.434Z,98235.41
2024-05-09T11:33:39.330Z,98238.16
2024-05-09T11:36:06.728Z,98241.34
2024-05-09T11:38:36.212Z,98245.34
2024-05-09T11:41:03.349Z,98235.91
2024-05-09T11:43:32.849Z,98235.81
2024-05-09T11:46:00.313Z,98229.91
2024-05-09T11:48:29.948Z,98220.16
2024-05-09T11:50:59.525Z,98217.00
2024-05-09T11:53:29.020Z,98214.19
2024-05-09T11:55:55.766Z,98212.94
2024-05-09T11:58:25.364Z,98205.84
2024-05-09T12:00:57.833Z,98204.88
2024-05-09T12:03:27.359Z,98206.28
2024-05-09T12:05:54.272Z,98195.63
2024-05-09T12:08:26.300Z,98196.69
2024-05-09T12:10:53.497Z,98197.06
2024-05-09T12:13:23.359Z,98196.03
2024-05-09T12:15:50.181Z,98189.75
2024-05-09T12:18:19.704Z,98187.38
2024-05-09T12:20:46.624Z,98190.84
2024-05-09T12:23:16.005Z,98183.25
2024-05-09T12:25:45.390Z,98185.16
2024-05-09T12:28:14.859Z,98189.53
2024-05-09T12:30:42.063Z,98189.19
2024-05-09T12:33:13.203Z,98181.94
2024-05-09T12:35:43.235Z,98178.41
2024-05-09T12:38:15.312Z,98177.03
2024-05-09T12:40:45.320Z,98172.94
2024-05-09T12:43:14.732Z,98174.53
2024-05-09T12:45:41.525Z,98171.75
2024-05-09T12:48:12.554Z,98161.97
2024-05-09T12:50:40.651Z,98165.31
2024-05-09T12:53:10.236Z,98157.38
2024-05-09T12:55:44.809Z,98144.00
2024-05-09T12:58:25.219Z,98152.09
2024-05-09T13:00:52.635Z,98159.31
2024-05-09T13:03:22.524Z,98155.28
2024-05-09T13:05:49.749Z,98154.78
2024-05-09T13:08:19.518Z,98146.13
2024-05-09T13:10:46.705Z,98147.88
2024-05-09T13:13:16.789Z,98136.63
2024-05-09T13:15:46.535Z,98142.50
2024-05-09T13:18:16.119Z,98129.28
2024-05-09T13:20:42.887Z,98129.66
2024-05-09T13:23:12.261Z,98128.41
2024-05-09T13:25:40.085Z,98131.63
2024-05-09T13:28:10.087Z,98129.50
2024-05-09T13:30:40.895Z,98125.63
2024-05-09T13:33:14.642Z,98128.03
2024-05-09T13:35:46.698Z,98114.94
2024-05-09T13:38:19.838Z,98112.97
2024-05-09T13:40:47.211Z,98116.53
2024-05-09T13:43:17.611Z,98107.81
2024-05-09T13:45:44.843Z,98115.84
2024-05-09T13:48:17.091Z,98110.94
2024-05-09T13:50:46.215Z,98112.38
2024-05-09T13:53:15.600Z,98109.09
2024-05-09T13:55:42.552Z,98106.03
2024-05-09T13:58:11.993Z,98106.47
2024-05-09T14:00:46.194Z,98101.38
2024-05-09T14:03:21.469Z,98096.97
2024-05-09T14:05:50.098Z,98094.97
2024-05-09T14:08:22.153Z,98085.75
2024-05-09T14:10:50.012Z,98078.78
2024-05-09T14:13:20.018Z,98079.97
2024-05-09T14:15:47.091Z,98078.22
2024-05-09T14:18:16.816Z,98075.78
2024-05-09T14:20:46.333Z,98073.03
2024-05-09T14:23:15.760Z,98076.00
2024-05-09T14:25:43.935Z,98067.25
2024-05-09T14:28:14.622Z,98067.75
2024-05-09T14:30:41.911Z,98060.78
2024-05-09T14:33:12.154Z,98061.25
2024-05-09T14:35:39.577Z,98064.50
2024-05-09T14:38:12.491Z,98057.44
2024-05-09T14:40:43.086Z,98065.00
2024-05-09T14:43:14.732Z,98064.81
2024-05-09T14:45:43.120Z,98062.16
2024-05-09T14:48:13.231Z,98054.50
2024-05-09T14:50:40.914Z,98045.09
2024-05-09T14:53:14.326Z,98049.22
2024-05-09T14:55:42.949Z,98042.88
2024-05-09T14:58:13.805Z,98043.50
2024-05-09T15:00:46.771Z,98043.50
2024-05-09T15:03:20.814Z,98033.34
2024-05-09T15:05:48.767Z,98034.13
2024-05-09T15:08:21.582Z,98023.56
2024-05-09T15:10:50.114Z,98029.16
2024-05-09T15:13:20.212Z,98028.66
2024-05-09T15:15:47.412Z,98025.50
2024-05-09T15:18:17.349Z,98022.38
2024-05-09T15:20:44.787Z,98024.66
2024-05-09T15:23:14.380Z,98020.41
2024-05-09T15:25:44.713Z,98012.00
2024-05-09T15:28:14.243Z,98015.00
2024-05-09T15:30:45.428Z,98009.38
2024-05-09T15:33:16.550Z,98006.38
2024-05-09T15:35:44.777Z,98010.59
2024-05-09T15:38:14.449Z,98006.19
2024-05-09T15:40:44.265Z,98008.38
2024-05-09T15:43:13.789Z,98008.47
2024-05-09T15:45:41.507Z,98006.97
2024-05-09T15:48:12.081Z,97997.09
2024-05-09T15:50:41.450Z,98004.72
2024-05-09T15:53:13.147Z,98005.56
2024-05-09T15:55:43.227Z,98003.41
2024-05-09T15:58:12.988Z,98012.16
2024-05-09T16:00:42.699Z,98010.38
2024-05-09T16:03:14.708Z,98000.66
2024-05-09T16:05:43.435Z,97999.34
2024-05-09T16:08:14.406Z,97998.25
2024-05-09T16:10:46.041Z,97996.97
2024-05-09T16:13:17.298Z,97997.50
2024-05-09T16:15:44.682Z,98002.75
2024-05-09T16:18:14.539Z,97994.56
2024-05-09T16:20:43.227Z,97993.09
2024-05-09T16:23:14.056Z,97993.31
2024-05-09T16:25:46.270Z,97985.47
2024-05-09T16:28:16.099Z,97992.00
2024-05-09T16:30:42.953Z,97988.47
2024-05-09T16:33:13.228Z,97984.22
2024-05-09T16:35:40.503Z,97992.00
2024-05-09T16:38:10.131Z,97996.38
2024-05-09T16:40:40.184Z,97987.84
2024-05-09T16:43:13.826Z,97992.00
2024-05-09T16:45:41.743Z,97988.47
2024-05-09T16:48:12.309Z,97991.59
2024-05-09T16:50:39.265Z,97976.59
2024-05-09T16:53:08.768Z,97971.84
2024-05-09T16:55:36.174Z,97973.66
2024-05-09T16:58:06.552Z,97970.03
2024-05-09T17:00:41.368Z,97969.00
2024-05-09T17:03:15.317Z,97969.03
2024-05-09T17:05:43.369Z,97976.56
2024-05-09T17:08:13.009Z,97974.31
2024-05-09T17:10:39.850Z,97973.59
2024-05-09T17:13:09.952Z,97973.59
2024-05-09T17:15:42.310Z,97965.16
2024-05-09T17:18:09.815Z,97969.78
2024-05-09T17:20:39.283Z,97976.56
2024-05-09T17:23:12.372Z,97981.22
2024-05-09T17:25:42.222Z,97982.91
2024-05-09T17:28:09.471Z,97981.66
2024-05-09T17:30:42.831Z,97979.41
2024-05-09T17:33:11.421Z,97980.81
2024-05-09T17:35:41.948Z,97981.78
2024-05-09T17:38:09.090Z,97981.72
2024-05-09T17:40:39.371Z,97977.28
2024-05-09T17:43:08.627Z,97980.00
2024-05-09T17:45:42.554Z,97971.03
2024-05-09T17:48:10.792Z,97986.56
2024-05-09T17:50:41.989Z,97979.78
2024-05-09T17:53:09.270Z,97987.59
2024-05-09T17:55:38.724Z,97979.22
2024-05-09T17:58:06.036Z,97979.22
2024-05-09T18:00:40.043Z,97984.31
2024-05-09T18:03:12.685Z,97986.88
2024-05-09T18:05:44.417Z,97981.50
2024-05-09T18:08:11.898Z,97976.63
2024-05-09T18:10:42.499Z,97976.00
2024-05-09T18:13:10.614Z,97979.00
2024-05-09T18:15:40.576Z,97982.19
2024-05-09T18:18:08.140Z,97984.69
2024-05-09T18:20:44.426Z,97983.44
2024-05-09T18:23:14.154Z,97983.09
2024-05-09T18:25:44.652Z,97981.72
2024-05-09T18:28:11.491Z,97975.47
2024-05-09T18:30:41.549Z,97986.47
2024-05-09T18:33:09.599Z,97979.38
2024-05-09T18:35:41.928Z,97983.03
2024-05-09T18:38:08.940Z,97980.78
2024-05-09T18:40:39.756Z,97979.91
2024-05-09T18:43:09.089Z,97983.50
2024-05-09T18:45:39.218Z,97986.13
2024-05-09T18:48:08.238Z,97984.50
2024-05-09T18:50:41.760Z,97976.19
2024-05-09T18:53:09.863Z,97976.56
2024-05-09T18:55:39.464Z,97993.88
2024-05-09T18:58:06.542Z,97987.47
2024-05-09T19:00:38.949Z,97995.19
2024-05-09T19:03:10.506Z,97997.06
2024-05-09T19:05:46.020Z,98008.53
2024-05-09T19:08:14.412Z,97999.78
2024-05-09T19:10:45.645Z,98006.88
2024-05-09T19:13:14.162Z,98004.47
2024-05-09T19:15:44.947Z,97999.50
2024-05-09T19:18:13.263Z,98004.72
2024-05-09T19:20:46.352Z,98005.72
2024-05-09T19:23:13.207Z,98006.44
2024-05-09T19:25:42.803Z,98010.88
2024-05-09T19:28:09.638Z,98009.78
2024-05-09T19:30:41.908Z,98013.56
2024-05-09T19:33:11.004Z,98008.25
2024-05-09T19:35:41.620Z,98010.13
2024-05-09T19:38:11.140Z,98007.03
2024-05-09T19:40:40.793Z,98008.56
2024-05-09T19:43:07.781Z,98010.81
2024-05-09T19:45:37.308Z,98004.78
2024-05-09T19:48:05.428Z,98007.59
2024-05-09T19:50:41.879Z,98004.22
2024-05-09T19:53:14.014Z,98007.75
2024-05-09T19:55:43.489Z,98010.03
2024-05-09T19:58:10.929Z,98011.28
2024-05-09T20:00:43.118Z,98008.19
2024-05-09T20:03:11.324Z,98010.47
2024-05-09T20:05:41.016Z,98008.47
2024-05-09T20:08:08.176Z,98005.38
2024-05-09T20:10:40.475Z,98005.09
2024-05-09T20:13:08.213Z,98006.09
2024-05-09T20:15:38.778Z,98009.88
2024-05-09T20:18:06.566Z,98012.97
2024-05-09T20:20:41.213Z,98008.16
2024-05-09T20:23:10.316Z,98012.09
2024-05-09T20:25:42.480Z,98013.09
2024-05-09T20:28:10.264Z,98009.25
2024-05-09T20:30:39.945Z,98012.88
2024-05-09T20:33:08.221Z,98014.72
2024-05-09T20:35:38.730Z,98016.78
2024-05-09T20:38:05.610Z,98013.28
2024-05-09T20:40:38.258Z,98006.81
2024-05-09T20:43:09.664Z,98009.75
2024-05-09T20:45:40.178Z,98012.56
2024-05-09T20:48:08.994Z,98009.47
2024-05-09T20:50:41.534Z,98009.16
2024-05-09T20:53:10.327Z,98010.88
2024-05-09T20:55:39.792Z,98015.03
2024-05-09T20:58:10.108Z,98009.72
2024-05-09T21:00:43.218Z,98009.97
2024-05-09T21:03:13.151Z,98009.09
2024-05-09T21:05:43.463Z,98012.75
2024-05-09T21:08:10.394Z,98015.97
2024-05-09T21:10:39.937Z,98011.31
2024-05-09T21:13:09.652Z,98009.31
2024-05-09T21:15:39.214Z,98009.31
2024-05-09T21:18:06.089Z,98005.41
2024-05-09T21:20:37.386Z,98002.88
2024-05-09T21:23:04.455Z,98000.34
2024-05-09T21:25:33.913Z,98001.47
2024-05-09T21:28:01.146Z,98007.31
2024-05-09T21:30:41.261Z,98005.38
2024-05-09T21:33:11.900Z,98005.66
2024-05-09T21:35:43.391Z,98002.50
2024-05-09T21:38:10.582Z,98004.00
2024-05-09T21:40:40.070Z,98000.63
2024-05-09T21:43:07.827Z,98006.09
2024-05-09T21:45:40.218Z,98010.03
2024-05-09T21:48:08.204Z,98011.66
2024-05-09T21:50:41.105Z,98005.50
2024-05-09T21:53:09.475Z,98010.25
2024-05-09T21:55:38.954Z,98009.84
2024-05-09T21:58:05.809Z,98010.66
2024-05-09T22:00:38.070Z,98006.88
2024-05-09T22:03:10.109Z,98003.97
2024-05-09T22:05:43.432Z,98004.31
2024-05-09T22:08:10.777Z,98006.31
2024-05-09T22:10:40.283Z,97996.34
2024-05-09T22:13:08.014Z,98005.13
2024-05-09T22:15:40.025Z,98004.16
2024-05-09T22:18:11.160Z,98013.81
2024-05-09T22:20:44.874Z,98003.03
2024-05-09T22:23:13.084Z,98000.34
2024-05-09T22:25:42.608Z,98002.00
2024-05-09T22:28:09.882Z,98009.31
2024-05-09T22:30:40.375Z,98000.91
2024-05-09T22:33:11.490Z,98006.22
2024-05-09T22:35:41.893Z,97996.94
2024-05-09T22:38:08.847Z,98005.66
2024-05-09T22:40:47.404Z,97998.66
2024-05-09T22:43:21.480Z,98004.50
2024-05-09T22:45:53.741Z,98003.06
2024-05-09T22:48:24.276Z,98005.72
2024-05-09T22:50:54.434Z,98000.50
2024-05-09T22:53:21.854Z,97999.81
2024-05-09T22:55:51.264Z,98005.72
2024-05-09T22:58:19.061Z,98003.91
2024-05-09T23:00:48.599Z,97999.94
2024-05-09T23:03:16.568Z,98001.81
2024-05-09T23:05:48.680Z,97998.44
2024-05-09T23:08:15.414Z,97998.56
2024-05-09T23:10:44.883Z,97984.53
2024-05-09T23:13:11.726Z,97986.69
2024-05-09T23:15:41.295Z,97983.84
2024-05-09T23:18:08.366Z,97981.88
2024-05-09T23:20:39.875Z,97983.84
2024-05-09T23:23:11.404Z,97976.72
2024-05-09T23:25:42.074Z,97977.34
2024-05-09T23:28:09.287Z,97975.13
2024-05-09T23:30:40.816Z,97975.66
2024-05-09T23:33:09.846Z,97971.94
2024-05-09T23:35:39.599Z,97966.56
2024-05-09T23:38:06.333Z,97963.81
2024-05-09T23:40:40.787Z,97961.38
2024-05-09T23:43:09.242Z,97966.94
2024-05-09T23:45:39.164Z,97965.25
2024-05-09T23:48:06.896Z,97953.44
2024-05-09T23:50:38.511Z,97960.56
2024-05-09T23:53:10.252Z,97961.69
2024-05-09T23:55:40.560Z,97957.31
2024-05-09T23:58:11.327Z,97951.78
